Time;durP1;ratioP1;P1;durP2;ratioP2;P2;SDS_P1;SDS_P2;PMS_P1;PMS_P2;Temp;Humidity;BMP_temperature;BMP_pressure;BME280_temperature;BME280_humidity;BME280_pressure;Samples;Min_cycle;Max_cycle;Signal;HPM_P1;HPM_P2
2021/03/16 00:01:07;;;;;;;17.23;9.38;;;5.40;95.70;;;;;;5000507;28;20492;-65
2021/03/16 00:03:33;;;;;;;17.90;9.65;;;5.40;95.70;;;;;;5000452;28;20045;-68
2021/03/16 00:06:00;;;;;;;15.60;9.60;;;5.40;95.50;;;;;;5002139;28;20044;-75
2021/03/16 00:08:27;;;;;;;15.80;9.40;;;5.40;95.60;;;;;;4999312;28;20495;-68
2021/03/16 00:10:53;;;;;;;17.08;9.20;;;5.40;95.40;;;;;;4999793;28;20046;-70
2021/03/16 00:13:19;;;;;;;19.98;9.55;;;5.40;95.80;;;;;;5001053;28;20022;-74
2021/03/16 00:15:45;;;;;;;9.57;6.60;;;5.40;95.40;;;;;;4998904;28;20037;-75
2021/03/16 00:18:17;;;;;;;11.55;7.35;;;5.40;94.40;;;;;;4999443;28;20376;-68
2021/03/16 00:20:45;;;;;;;14.27;7.90;;;5.40;94.90;;;;;;4999399;28;20023;-74
2021/03/16 00:23:11;;;;;;;11.27;7.20;;;5.40;94.70;;;;;;5000063;28;20045;-68
2021/03/16 00:25:38;;;;;;;12.50;7.45;;;5.40;94.90;;;;;;4996224;28;20039;-75
2021/03/16 00:28:05;;;;;;;11.13;7.15;;;5.40;94.80;;;;;;4999682;28;20018;-67
2021/03/16 00:30:31;;;;;;;11.88;7.20;;;5.40;95.10;;;;;;4998704;28;20025;-75
2021/03/16 00:32:57;;;;;;;12.02;7.50;;;5.40;94.70;;;;;;4997720;28;20049;-75
2021/03/16 00:35:23;;;;;;;13.05;7.78;;;5.40;95.20;;;;;;4998410;28;20026;-68
2021/03/16 00:37:50;;;;;;;11.30;7.50;;;5.40;95.20;;;;;;4999081;28;20021;-74
2021/03/16 00:40:16;;;;;;;11.30;6.90;;;5.30;94.20;;;;;;4997959;28;20030;-66
2021/03/16 00:42:42;;;;;;;11.65;7.38;;;5.30;94.20;;;;;;4997623;28;20118;-68
2021/03/16 00:45:09;;;;;;;11.25;7.15;;;5.40;95.00;;;;;;4998103;28;20484;-66
2021/03/16 00:47:35;;;;;;;10.98;6.50;;;5.30;94.80;;;;;;4999780;28;20081;-75
2021/03/16 00:50:05;;;;;;;10.20;5.72;;;5.40;94.50;;;;;;4997828;28;20047;-74
2021/03/16 00:52:31;;;;;;;10.15;6.47;;;5.30;94.40;;;;;;5000105;28;20419;-66
2021/03/16 00:54:56;;;;;;;9.15;6.60;;;5.30;95.30;;;;;;4998681;28;20031;-74
2021/03/16 00:57:22;;;;;;;9.10;6.45;;;5.30;94.50;;;;;;4999088;28;20030;-75
2021/03/16 00:59:49;;;;;;;11.07;6.30;;;5.30;95.30;;;;;;4998564;28;20518;-70
2021/03/16 01:02:17;;;;;;;11.43;6.45;;;5.30;94.20;;;;;;4998866;28;20023;-72
2021/03/16 01:04:43;;;;;;;10.38;6.80;;;5.20;94.10;;;;;;4997459;28;20033;-75
2021/03/16 01:07:09;;;;;;;12.98;7.45;;;5.20;95.10;;;;;;4999478;28;19999;-75
2021/03/16 01:09:35;;;;;;;12.15;7.47;;;5.10;94.70;;;;;;4999600;28;20027;-74
2021/03/16 01:12:02;;;;;;;11.60;8.00;;;5.20;95.00;;;;;;4997364;28;20038;-69
2021/03/16 01:14:28;;;;;;;9.90;6.93;;;5.20;94.40;;;;;;4996887;28;20034;-71
2021/03/16 01:16:54;;;;;;;10.63;6.70;;;5.20;94.40;;;;;;4996766;28;20031;-68
2021/03/16 01:19:20;;;;;;;10.68;6.25;;;5.10;94.00;;;;;;4996133;28;20031;-66
2021/03/16 01:21:46;;;;;;;12.00;7.63;;;5.10;94.20;;;;;;4996935;28;20269;-75
2021/03/16 01:24:12;;;;;;;9.02;5.60;;;5.10;94.00;;;;;;4997879;28;20023;-75
2021/03/16 01:26:38;;;;;;;10.27;6.30;;;5.00;93.80;;;;;;4998520;28;20015;-72
2021/03/16 01:29:04;;;;;;;11.77;6.80;;;5.00;93.70;;;;;;4996759;28;20049;-67
2021/03/16 01:31:31;;;;;;;12.05;6.70;;;5.10;94.20;;;;;;4996644;28;20023;-75
2021/03/16 01:33:57;;;;;;;13.50;6.45;;;5.10;95.30;;;;;;4996418;28;20026;-67
2021/03/16 01:36:23;;;;;;;11.75;6.90;;;5.00;94.50;;;;;;4998754;28;20066;-68
2021/03/16 01:38:49;;;;;;;12.13;7.57;;;5.00;93.80;;;;;;4998342;28;20034;-73
2021/03/16 01:41:15;;;;;;;11.77;7.53;;;5.00;93.90;;;;;;4997865;28;20026;-75
2021/03/16 01:43:41;;;;;;;10.55;6.85;;;4.90;94.00;;;;;;4996657;28;20029;-65
2021/03/16 01:46:08;;;;;;;9.73;6.20;;;4.90;94.00;;;;;;4997119;28;20022;-74
2021/03/16 01:48:36;;;;;;;10.88;6.88;;;4.90;94.50;;;;;;4997730;28;20457;-65
2021/03/16 01:51:05;;;;;;;9.40;6.35;;;4.90;94.60;;;;;;4996111;28;20058;-67
2021/03/16 01:53:31;;;;;;;9.77;6.75;;;4.90;94.20;;;;;;4998264;28;20032;-74
2021/03/16 01:55:58;;;;;;;8.48;5.95;;;5.00;99.80;;;;;;4998148;28;20026;-65
2021/03/16 01:58:24;;;;;;;10.63;6.07;;;5.00;99.90;;;;;;4996150;28;20022;-66
2021/03/16 02:00:50;;;;;;;9.93;6.47;;;4.90;99.90;;;;;;4998017;28;20027;-66
2021/03/16 02:03:18;;;;;;;10.43;6.50;;;4.80;94.80;;;;;;4998263;28;20034;-65
2021/03/16 02:05:44;;;;;;;10.85;6.53;;;4.70;94.80;;;;;;4996968;28;20444;-65
2021/03/16 02:08:35;;;;;;;11.20;6.80;;;4.60;94.40;;;;;;5000268;28;20468;-73
2021/03/16 02:11:17;;;;;;;11.65;7.13;;;4.70;94.50;;;;;;5000462;28;20022;-66
2021/03/16 02:14:02;;;;;;;12.13;8.00;;;4.70;94.40;;;;;;4999253;28;20022;-68
2021/03/16 02:16:35;;;;;;;;;;;4.60;95.40;;;;;;4999786;28;20030;-73
2021/03/16 02:19:06;;;;;;;13.95;8.52;;;4.70;95.30;;;;;;5000089;28;19948;-75
2021/03/16 02:21:35;;;;;;;21.80;12.43;;;4.70;95.20;;;;;;5000662;28;20027;-75
2021/03/16 02:24:09;;;;;;;19.83;11.38;;;4.60;95.20;;;;;;4998120;28;20029;-66
2021/03/16 02:26:48;;;;;;;13.88;7.25;;;4.60;94.90;;;;;;4998097;28;20023;-75
2021/03/16 02:29:26;;;;;;;14.75;8.05;;;4.50;94.30;;;;;;4995996;28;20112;-72
2021/03/16 02:32:19;;;;;;;14.15;7.72;;;4.50;94.40;;;;;;4996587;28;20037;-67
2021/03/16 02:34:52;;;;;;;12.45;7.57;;;4.60;95.60;;;;;;4993189;28;20507;-67
2021/03/16 02:37:19;;;;;;;13.52;7.82;;;4.50;94.90;;;;;;4995656;28;20048;-67
2021/03/16 02:39:48;;;;;;;13.43;7.72;;;4.50;94.40;;;;;;4996858;28;20022;-75
2021/03/16 02:42:16;;;;;;;12.15;7.78;;;4.50;94.40;;;;;;4997534;28;20360;-75
2021/03/16 02:44:43;;;;;;;18.15;10.60;;;4.40;94.30;;;;;;4995408;28;20110;-69
2021/03/16 02:47:10;;;;;;;12.77;7.95;;;4.40;94.20;;;;;;4997735;28;20069;-76
2021/03/16 02:49:38;;;;;;;11.10;6.70;;;4.50;95.00;;;;;;4996837;28;20547;-74
2021/03/16 02:52:05;;;;;;;11.35;6.90;;;4.40;94.80;;;;;;4996891;28;20011;-73
2021/03/16 02:54:33;;;;;;;10.30;6.75;;;4.40;94.40;;;;;;4996021;28;20019;-75
2021/03/16 02:57:01;;;;;;;10.68;6.90;;;4.40;94.50;;;;;;4998433;28;20507;-75
2021/03/16 02:59:29;;;;;;;12.05;7.93;;;4.40;94.80;;;;;;4996691;28;20376;-67
2021/03/16 03:01:57;;;;;;;14.25;7.07;;;4.30;94.40;;;;;;4995894;28;20037;-66
2021/03/16 03:04:24;;;;;;;10.85;7.03;;;4.30;94.70;;;;;;4995526;28;20026;-72
2021/03/16 03:06:51;;;;;;;11.35;7.07;;;4.40;95.10;;;;;;4995633;28;20030;-75
2021/03/16 03:09:17;;;;;;;12.15;8.13;;;4.30;94.70;;;;;;4996316;28;20015;-66
2021/03/16 03:11:43;;;;;;;15.43;8.40;;;4.40;94.70;;;;;;4999628;28;20492;-75
2021/03/16 03:14:10;;;;;;;16.83;10.25;;;4.30;94.30;;;;;;4999194;28;20085;-67
2021/03/16 03:16:36;;;;;;;20.58;10.27;;;4.20;94.50;;;;;;4998247;28;20085;-69
2021/03/16 03:19:04;;;;;;;20.80;12.05;;;4.20;94.90;;;;;;4996945;28;20023;-70
2021/03/16 03:21:46;;;;;;;23.02;12.43;;;4.20;95.80;;;;;;4996872;28;20026;-68
2021/03/16 03:24:20;;;;;;;19.80;11.75;;;4.20;95.00;;;;;;4996532;28;20077;-76
2021/03/16 03:27:28;;;;;;;25.42;14.07;;;4.20;95.10;;;;;;4994835;28;20465;-67
2021/03/16 03:29:56;;;;;;;18.40;11.52;;;4.10;95.00;;;;;;4975710;28;20063;-85
2021/03/16 03:32:27;;;;;;;20.70;13.27;;;4.10;95.20;;;;;;4978267;28;20023;-76
2021/03/16 03:34:53;;;;;;;21.73;12.63;;;4.10;95.40;;;;;;4975559;28;20486;-67
2021/03/16 03:37:23;;;;;;;22.13;13.38;;;4.10;95.30;;;;;;4974140;28;20508;-67
2021/03/16 03:39:49;;;;;;;22.67;13.85;;;4.10;95.80;;;;;;4977378;28;20034;-75
2021/03/16 03:42:18;;;;;;;22.60;13.27;;;4.10;95.50;;;;;;4976027;28;20027;-75
2021/03/16 03:44:47;;;;;;;24.83;13.82;;;4.10;95.60;;;;;;4977324;28;20038;-71
2021/03/16 03:47:16;;;;;;;19.70;12.15;;;4.00;95.40;;;;;;4973591;28;20162;-69
2021/03/16 03:49:43;;;;;;;22.90;13.02;;;4.00;96.20;;;;;;4974992;28;20071;-75
2021/03/16 03:52:12;;;;;;;23.08;12.98;;;3.90;95.50;;;;;;4975537;28;20086;-75
2021/03/16 03:54:43;;;;;;;31.25;16.23;;;3.90;95.80;;;;;;4975252;28;20058;-74
2021/03/16 03:57:10;;;;;;;20.98;12.10;;;3.90;95.70;;;;;;4977468;28;20039;-75
2021/03/16 03:59:40;;;;;;;21.48;11.27;;;3.90;96.40;;;;;;4977856;28;20046;-68
2021/03/16 04:02:07;;;;;;;16.13;10.70;;;3.90;95.70;;;;;;4976851;28;20031;-67
2021/03/16 04:04:33;;;;;;;14.18;10.40;;;3.80;95.90;;;;;;4978324;28;20027;-72
2021/03/16 04:07:00;;;;;;;18.85;11.98;;;3.90;96.50;;;;;;4981157;28;20089;-74
2021/03/16 04:09:26;;;;;;;12.70;8.57;;;3.80;96.40;;;;;;4980923;28;20361;-75
2021/03/16 04:11:52;;;;;;;16.40;11.23;;;3.80;96.10;;;;;;4981012;28;20027;-75
2021/03/16 04:14:19;;;;;;;17.80;13.30;;;3.80;96.70;;;;;;4980843;28;20034;-76
2021/03/16 04:16:45;;;;;;;13.98;8.77;;;3.80;96.20;;;;;;4981258;28;20066;-67
2021/03/16 04:19:11;;;;;;;17.38;12.23;;;3.80;96.00;;;;;;4981099;28;20512;-75
2021/03/16 04:21:38;;;;;;;21.55;12.68;;;3.80;96.30;;;;;;4982117;28;20054;-73
2021/03/16 04:24:04;;;;;;;25.13;14.10;;;3.80;96.40;;;;;;4980098;28;20034;-76
2021/03/16 04:26:30;;;;;;;20.80;11.38;;;3.80;96.40;;;;;;4978391;28;20084;-72
2021/03/16 04:28:56;;;;;;;22.17;12.80;;;3.80;96.40;;;;;;4978429;28;20093;-67
2021/03/16 04:31:22;;;;;;;22.67;14.02;;;3.80;96.70;;;;;;4977984;28;20101;-76
2021/03/16 04:33:48;;;;;;;21.67;13.90;;;3.80;96.90;;;;;;4979093;28;20105;-75
2021/03/16 04:36:15;;;;;;;27.45;12.98;;;3.80;97.30;;;;;;4976723;28;20027;-65
2021/03/16 04:38:41;;;;;;;21.30;12.02;;;3.80;97.00;;;;;;4980617;28;20031;-67
2021/03/16 04:41:07;;;;;;;15.90;9.88;;;3.80;97.20;;;;;;4980626;28;20031;-73
2021/03/16 04:43:33;;;;;;;16.58;9.85;;;3.80;96.80;;;;;;4978429;28;20050;-76
2021/03/16 04:45:59;;;;;;;16.08;9.40;;;3.90;97.30;;;;;;4978482;28;20033;-75
2021/03/16 04:48:25;;;;;;;17.40;10.70;;;3.80;97.30;;;;;;4979447;28;20110;-70
2021/03/16 04:50:54;;;;;;;19.05;11.90;;;3.80;97.00;;;;;;4995988;28;20054;-76
2021/03/16 04:53:20;;;;;;;17.65;10.43;;;3.80;97.50;;;;;;4998674;28;20367;-76
2021/03/16 04:55:45;;;;;;;21.58;12.57;;;3.80;97.30;;;;;;4998670;28;20022;-75
2021/03/16 04:58:11;;;;;;;20.88;13.07;;;3.80;97.30;;;;;;4997484;28;20073;-76
2021/03/16 05:00:37;;;;;;;16.45;11.35;;;3.80;97.60;;;;;;4999066;28;20338;-75
2021/03/16 05:03:03;;;;;;;16.65;11.38;;;3.80;97.70;;;;;;4997376;28;20053;-66
2021/03/16 05:05:29;;;;;;;15.88;9.15;;;3.80;97.50;;;;;;4997022;28;20018;-67
2021/03/16 05:07:55;;;;;;;12.93;9.02;;;3.80;97.90;;;;;;4996484;28;20026;-76
2021/03/16 05:10:21;;;;;;;15.05;9.45;;;3.80;97.80;;;;;;4997252;28;20054;-68
2021/03/16 05:12:47;;;;;;;17.30;10.02;;;3.80;98.20;;;;;;4997025;28;20037;-68
2021/03/16 05:15:13;;;;;;;18.05;11.50;;;3.70;98.00;;;;;;4996606;28;20416;-75
2021/03/16 05:17:39;;;;;;;14.50;8.98;;;3.70;98.20;;;;;;4996592;28;20081;-74
2021/03/16 05:20:06;;;;;;;12.07;7.95;;;3.70;98.50;;;;;;4997418;28;20027;-71
2021/03/16 05:22:33;;;;;;;11.63;8.30;;;3.70;98.60;;;;;;4996959;28;20029;-74
2021/03/16 05:25:00;;;;;;;14.95;7.68;;;3.80;98.90;;;;;;4997587;28;20026;-74
2021/03/16 05:27:26;;;;;;;12.30;7.70;;;3.70;98.80;;;;;;4997813;28;20041;-70
2021/03/16 05:29:52;;;;;;;13.38;9.27;;;3.70;99.10;;;;;;4996681;28;20457;-71
2021/03/16 05:32:18;;;;;;;12.05;8.82;;;3.70;99.10;;;;;;4997322;28;20037;-67
2021/03/16 05:34:44;;;;;;;12.80;9.13;;;3.70;99.20;;;;;;4997203;28;20019;-75
2021/03/16 05:37:09;;;;;;;16.65;11.35;;;3.80;99.30;;;;;;4996422;28;20034;-72
2021/03/16 05:39:35;;;;;;;19.52;13.05;;;3.70;99.50;;;;;;4996680;28;20023;-76
2021/03/16 05:42:01;;;;;;;16.88;11.63;;;3.70;99.50;;;;;;4997479;28;20384;-71
2021/03/16 05:44:28;;;;;;;16.40;11.63;;;3.70;99.60;;;;;;4996746;28;20018;-67
2021/03/16 05:46:55;;;;;;;18.02;10.82;;;3.70;99.90;;;;;;4995764;28;20475;-76
2021/03/16 05:49:23;;;;;;;21.52;12.10;;;3.70;99.90;;;;;;4996782;28;20050;-75
2021/03/16 05:51:50;;;;;;;18.80;11.60;;;3.70;99.90;;;;;;4996938;28;20019;-76
2021/03/16 05:54:17;;;;;;;19.35;10.65;;;3.80;99.90;;;;;;4996949;28;20022;-66
2021/03/16 05:56:43;;;;;;;16.83;11.25;;;3.80;99.90;;;;;;4997908;28;20399;-76
2021/03/16 05:59:10;;;;;;;20.65;12.52;;;3.80;99.90;;;;;;4996972;28;20046;-75
2021/03/16 06:01:36;;;;;;;16.58;11.73;;;3.90;99.90;;;;;;4995768;28;20109;-76
2021/03/16 06:04:02;;;;;;;20.77;14.10;;;3.80;99.90;;;;;;4996291;28;20531;-67
2021/03/16 06:06:31;;;;;;;86.43;48.42;;;3.80;99.90;;;;;;4995779;28;20045;-66
2021/03/16 06:08:58;;;;;;;51.53;37.95;;;3.80;99.90;;;;;;4996232;28;20026;-65
2021/03/16 06:11:25;;;;;;;21.50;14.93;;;3.80;99.90;;;;;;4994551;28;20076;-76
2021/03/16 06:13:56;;;;;;;19.10;12.23;;;3.90;99.90;;;;;;4995380;28;20484;-76
2021/03/16 06:16:24;;;;;;;28.77;18.02;;;3.90;99.90;;;;;;4995467;28;20034;-66
2021/03/16 06:18:51;;;;;;;27.17;17.08;;;3.90;99.90;;;;;;4994754;28;20384;-76
2021/03/16 06:21:21;;;;;;;37.40;23.73;;;4.00;99.90;;;;;;4995736;28;20018;-69
2021/03/16 06:23:55;;;;;;;27.25;17.48;;;3.90;99.90;;;;;;4995371;28;20109;-75
2021/03/16 06:26:28;;;;;;;25.35;16.13;;;4.00;99.90;;;;;;4994980;28;20442;-76
2021/03/16 06:29:10;;;;;;;19.55;12.77;;;4.00;99.90;;;;;;4995118;28;20034;-72
2021/03/16 06:31:37;;;;;;;26.23;16.90;;;4.00;99.90;;;;;;4995768;28;20069;-68
2021/03/16 06:34:03;;;;;;;24.58;15.02;;;4.00;99.90;;;;;;4994987;28;20037;-68
2021/03/16 06:36:31;;;;;;;27.33;17.45;;;4.10;99.90;;;;;;4994882;28;20019;-76
2021/03/16 06:38:57;;;;;;;38.42;21.13;;;4.10;99.90;;;;;;4995029;28;20026;-65
2021/03/16 06:41:24;;;;;;;61.60;21.73;;;4.20;99.90;;;;;;4995032;28;20022;-76
2021/03/16 06:44:00;;;;;;;39.15;23.25;;;4.10;99.90;;;;;;4995139;28;20045;-66
2021/03/16 06:46:35;;;;;;;38.22;22.50;;;4.10;99.90;;;;;;4995377;28;20034;-67
2021/03/16 06:49:11;;;;;;;25.83;15.15;;;4.30;99.90;;;;;;4996515;28;20081;-65
2021/03/16 06:51:37;;;;;;;37.03;22.98;;;4.30;99.90;;;;;;4996455;28;20022;-67
2021/03/16 06:54:09;;;;;;;31.17;19.60;;;4.40;99.90;;;;;;4995117;28;20484;-77
2021/03/16 06:56:36;;;;;;;35.25;21.65;;;4.40;99.90;;;;;;4994779;28;20035;-75
2021/03/16 06:59:04;;;;;;;26.40;16.10;;;4.40;99.90;;;;;;4994447;28;20034;-66
2021/03/16 07:01:34;;;;;;;28.25;18.83;;;4.40;99.90;;;;;;4995401;28;20077;-76
2021/03/16 07:04:13;;;;;;;66.68;43.65;;;4.50;99.90;;;;;;4995922;28;20026;-75
2021/03/16 07:06:40;;;;;;;35.42;25.85;;;4.50;99.90;;;;;;4997171;28;20085;-77
2021/03/16 07:09:06;;;;;;;98.43;66.90;;;4.60;99.90;;;;;;4995654;28;20076;-64
2021/03/16 07:11:35;;;;;;;82.05;51.67;;;4.60;99.90;;;;;;4997067;28;20030;-76
2021/03/16 07:14:03;;;;;;;87.60;54.78;;;4.70;99.90;;;;;;4995178;28;20025;-67
2021/03/16 07:16:29;;;;;;;52.88;36.00;;;4.80;99.90;;;;;;4995110;28;20477;-76
2021/03/16 07:18:55;;;;;;;44.13;31.65;;;4.80;99.90;;;;;;4994349;28;20050;-66
2021/03/16 07:21:25;;;;;;;56.83;38.97;;;4.90;99.90;;;;;;4996557;28;20023;-78
2021/03/16 07:24:11;;;;;;;37.83;26.05;;;4.90;99.90;;;;;;4995310;28;20022;-76
2021/03/16 07:26:38;;;;;;;32.85;22.80;;;5.00;99.90;;;;;;4996070;28;20023;-65
2021/03/16 07:29:08;;;;;;;58.40;37.55;;;5.00;99.90;;;;;;4998429;28;20488;-77
2021/03/16 07:31:41;;;;;;;80.15;55.08;;;5.20;99.90;;;;;;4999247;28;20109;-77
2021/03/16 07:34:08;;;;;;;202.77;139.82;;;5.20;99.90;;;;;;5002881;28;20388;-66
2021/03/16 07:36:36;;;;;;;390.55;277.50;;;5.30;99.90;;;;;;4998430;28;20023;-76
2021/03/16 07:39:05;;;;;;;107.13;79.40;;;5.40;99.90;;;;;;5002664;28;20018;-66
2021/03/16 07:41:32;;;;;;;143.50;122.30;;;5.50;99.50;;;;;;5005903;28;20014;-77
2021/03/16 07:44:07;;;;;;;22.83;18.45;;;5.50;99.70;;;;;;5005566;28;20088;-67
2021/03/16 07:46:53;;;;;;;40.75;34.65;;;5.60;99.90;;;;;;5002863;28;20022;-64
2021/03/16 07:49:31;;;;;;;40.70;29.08;;;5.70;99.60;;;;;;4998426;28;20133;-64
2021/03/16 07:51:58;;;;;;;39.35;25.17;;;5.80;99.40;;;;;;4996371;28;20423;-64
2021/03/16 07:54:39;;;;;;;68.88;58.38;;;5.90;99.20;;;;;;4988434;28;20034;-66
2021/03/16 07:57:05;;;;;;;29.65;19.48;;;6.00;99.20;;;;;;4987915;28;20380;-65
2021/03/16 07:59:35;;;;;;;81.32;73.35;;;6.00;98.80;;;;;;4986839;28;20040;-76
2021/03/16 08:02:02;;;;;;;14.68;11.13;;;6.10;98.40;;;;;;4987922;28;20025;-65
2021/03/16 08:04:41;;;;;;;19.20;12.43;;;6.10;98.60;;;;;;4988753;28;20019;-66
2021/03/16 08:07:12;;;;;;;86.32;66.20;;;6.20;98.50;;;;;;4981473;28;20022;-65
2021/03/16 08:09:45;;;;;;;21.73;14.80;;;6.30;98.50;;;;;;4984162;28;20180;-64
2021/03/16 08:12:24;;;;;;;15.90;11.20;;;6.40;98.80;;;;;;4982617;28;20034;-65
2021/03/16 08:14:51;;;;;;;14.77;10.75;;;6.50;99.90;;;;;;4980324;28;20154;-77
2021/03/16 08:17:34;;;;;;;15.35;10.85;;;6.60;97.80;;;;;;4978536;28;20035;-65
2021/03/16 08:20:02;;;;;;;19.30;12.32;;;6.60;97.80;;;;;;4978655;28;20022;-77
2021/03/16 08:22:28;;;;;;;11.52;8.95;;;6.90;99.90;;;;;;4978176;28;20038;-65
2021/03/16 08:25:05;;;;;;;14.80;10.93;;;;;;;;;;4978147;28;20031;-74
2021/03/16 08:27:33;;;;;;;21.77;12.32;;;7.00;97.10;;;;;;4978647;28;20031;-76
2021/03/16 08:30:00;;;;;;;25.42;12.93;;;7.00;97.00;;;;;;4978570;28;20022;-69
2021/03/16 08:32:26;;;;;;;17.33;10.85;;;7.10;96.70;;;;;;4978622;28;20430;-77
2021/03/16 08:34:54;;;;;;;14.65;9.60;;;7.10;95.90;;;;;;4978380;28;20069;-76
2021/03/16 08:37:26;;;;;;;12.43;9.38;;;7.20;96.30;;;;;;4977970;28;20026;-76
2021/03/16 08:39:53;;;;;;;12.35;9.40;;;7.30;95.00;;;;;;4976185;28;20051;-77
2021/03/16 08:42:24;;;;;;;13.02;9.27;;;7.50;96.40;;;;;;4976819;28;20094;-76
2021/03/16 08:44:51;;;;;;;13.27;9.68;;;7.30;95.50;;;;;;4977849;28;20027;-77
2021/03/16 08:47:22;;;;;;;15.48;11.27;;;7.40;96.20;;;;;;4977321;28;20101;-65
2021/03/16 08:49:50;;;;;;;15.93;11.85;;;7.70;96.50;;;;;;4976750;28;20527;-72
2021/03/16 08:52:21;;;;;;;14.82;11.18;;;7.70;95.60;;;;;;4977578;28;20027;-77
2021/03/16 08:54:48;;;;;;;14.35;9.38;;;7.60;96.10;;;;;;4976325;28;20093;-76
2021/03/16 08:57:24;;;;;;;12.63;9.13;;;7.70;95.00;;;;;;4976815;28;20027;-66
2021/03/16 08:59:52;;;;;;;15.48;10.20;;;7.60;95.20;;;;;;4977429;28;20037;-78
2021/03/16 09:02:23;;;;;;;12.95;10.07;;;7.50;95.20;;;;;;4977338;28;20023;-65
2021/03/16 09:04:49;;;;;;;16.70;12.00;;;7.70;95.60;;;;;;4975784;28;20023;-75
2021/03/16 09:07:25;;;;;;;21.25;13.52;;;7.80;94.70;;;;;;4977125;28;20023;-76
2021/03/16 09:10:03;;;;;;;15.27;11.73;;;7.90;95.20;;;;;;4976730;28;20035;-67
2021/03/16 09:12:30;;;;;;;18.50;12.30;;;8.10;95.60;;;;;;4976590;28;20023;-73
2021/03/16 09:15:07;;;;;;;13.45;9.77;;;8.30;95.10;;;;;;4976671;28;20049;-74
2021/03/16 09:17:34;;;;;;;10.20;8.38;;;8.30;95.20;;;;;;4976722;28;20026;-71
2021/03/16 09:20:28;;;;;;;11.80;8.13;;;8.10;94.20;;;;;;4977449;28;20485;-73
2021/03/16 09:22:56;;;;;;;22.73;15.15;;;8.30;94.50;;;;;;4969948;28;20488;-66
2021/03/16 09:25:27;;;;;;;37.08;21.38;;;8.50;93.60;;;;;;4976644;28;20030;-65
2021/03/16 09:28:00;;;;;;;14.90;10.63;;;8.70;93.30;;;;;;4977223;28;20078;-75
2021/03/16 09:30:31;;;;;;;15.43;11.18;;;8.90;94.20;;;;;;4976230;28;20121;-66
2021/03/16 09:32:58;;;;;;;13.40;9.18;;;9.00;93.40;;;;;;4976759;28;20022;-67
2021/03/16 09:35:24;;;;;;;13.15;9.23;;;8.90;93.30;;;;;;4975035;28;20035;-65
2021/03/16 09:37:52;;;;;;;12.90;9.65;;;9.20;93.40;;;;;;4980806;28;20208;-65
2021/03/16 09:40:29;;;;;;;15.13;11.90;;;9.00;92.00;;;;;;4985952;28;20015;-65
2021/03/16 09:42:58;;;;;;;12.00;8.75;;;9.20;92.30;;;;;;4980538;28;20059;-67
2021/03/16 09:45:27;;;;;;;22.33;14.18;;;9.10;93.60;;;;;;4984459;28;20018;-68
2021/03/16 09:47:53;;;;;;;22.25;14.15;;;9.20;93.00;;;;;;4985934;28;20023;-65
2021/03/16 09:50:23;;;;;;;19.33;13.05;;;9.60;93.00;;;;;;4985403;28;20361;-65
2021/03/16 09:53:06;;;;;;;24.00;15.50;;;9.40;92.50;;;;;;4984617;28;20114;-68
2021/03/16 09:55:33;;;;;;;16.13;12.15;;;9.30;92.20;;;;;;4986883;28;20097;-67
2021/03/16 09:57:59;;;;;;;15.80;11.73;;;9.70;95.10;;;;;;4983525;28;20118;-75
2021/03/16 10:00:27;;;;;;;17.02;11.55;;;9.70;91.40;;;;;;4980824;28;20106;-75
2021/03/16 10:03:08;;;;;;;16.98;13.30;;;9.80;91.80;;;;;;4983861;28;20027;-68
2021/03/16 10:05:35;;;;;;;10.80;8.35;;;;;;;;;;4984073;28;20058;-66
2021/03/16 10:08:01;;;;;;;16.55;12.55;;;10.00;91.00;;;;;;4982414;28;20026;-67
2021/03/16 10:10:31;;;;;;;16.73;11.32;;;10.10;92.00;;;;;;4986547;28;20030;-68
2021/03/16 10:13:03;;;;;;;11.68;9.57;;;10.10;91.90;;;;;;4985088;28;20034;-65
2021/03/16 10:15:35;;;;;;;13.23;9.68;;;10.10;91.40;;;;;;4985138;28;20439;-67
2021/03/16 10:18:06;;;;;;;12.73;8.88;;;9.70;90.20;;;;;;4984681;28;20073;-68
2021/03/16 10:20:37;;;;;;;17.10;12.75;;;9.60;91.80;;;;;;4984562;28;20050;-66
2021/03/16 10:23:09;;;;;;;16.38;11.43;;;9.40;91.90;;;;;;4983317;28;20015;-66
2021/03/16 10:25:36;;;;;;;13.05;10.00;;;9.30;92.10;;;;;;4984507;28;20034;-70
2021/03/16 10:28:05;;;;;;;17.38;12.55;;;9.10;92.00;;;;;;4985296;28;20026;-67
2021/03/16 10:30:36;;;;;;;15.15;11.50;;;9.80;93.40;;;;;;4983868;28;20037;-73
2021/03/16 10:33:03;;;;;;;11.35;9.68;;;9.90;91.30;;;;;;4989461;28;20380;-66
2021/03/16 10:35:31;;;;;;;13.85;11.65;;;9.50;90.90;;;;;;5001899;28;20029;-72
2021/03/16 10:37:57;;;;;;;17.60;13.02;;;9.30;90.60;;;;;;4999763;28;20022;-67
2021/03/16 10:40:24;;;;;;;34.38;24.98;;;9.20;91.10;;;;;;4998328;28;20026;-65
2021/03/16 10:42:51;;;;;;;32.40;21.85;;;9.10;91.10;;;;;;4998176;28;20013;-72
2021/03/16 10:45:17;;;;;;;32.40;22.45;;;9.00;92.40;;;;;;4997826;28;20034;-69
2021/03/16 10:47:43;;;;;;;48.70;30.55;;;8.80;91.90;;;;;;4998405;28;20018;-70
2021/03/16 10:50:10;;;;;;;26.75;18.00;;;8.70;92.40;;;;;;4996024;28;20403;-73
2021/03/16 10:52:36;;;;;;;27.13;16.35;;;8.60;92.60;;;;;;4998825;28;20106;-67
2021/03/16 10:55:02;;;;;;;21.65;14.95;;;8.70;93.30;;;;;;4998808;28;20525;-63
2021/03/16 10:57:28;;;;;;;17.73;12.25;;;8.90;92.50;;;;;;4997401;28;20027;-68
2021/03/16 10:59:54;;;;;;;17.58;12.13;;;8.80;92.00;;;;;;4998487;28;20030;-67
2021/03/16 11:02:20;;;;;;;22.33;14.75;;;8.70;92.40;;;;;;4997879;28;20109;-64
2021/03/16 11:04:46;;;;;;;17.23;12.00;;;8.70;92.20;;;;;;4999448;28;20431;-77
2021/03/16 11:07:12;;;;;;;21.80;13.63;;;8.60;92.80;;;;;;4999305;28;19998;-72
2021/03/16 11:09:38;;;;;;;12.05;8.90;;;8.60;92.80;;;;;;4995412;28;20373;-70
2021/03/16 11:12:05;;;;;;;18.15;12.07;;;8.60;92.50;;;;;;4996622;28;20023;-67
2021/03/16 11:14:31;;;;;;;17.77;11.88;;;8.60;92.80;;;;;;4996775;28;20089;-63
2021/03/16 11:16:56;;;;;;;15.13;9.82;;;8.60;93.30;;;;;;4999152;28;20026;-64
2021/03/16 11:19:22;;;;;;;18.52;11.93;;;8.60;92.50;;;;;;4998432;28;20026;-72
2021/03/16 11:21:48;;;;;;;18.30;12.13;;;8.60;93.10;;;;;;4996036;28;20049;-64
2021/03/16 11:24:15;;;;;;;27.80;16.52;;;8.60;92.40;;;;;;4997161;28;20022;-66
2021/03/16 11:26:41;;;;;;;31.83;18.98;;;8.70;91.70;;;;;;4999375;28;20069;-73
2021/03/16 11:29:07;;;;;;;45.42;24.23;;;8.90;91.70;;;;;;4996230;28;20031;-67
2021/03/16 11:31:33;;;;;;;27.33;14.98;;;8.90;91.60;;;;;;4998806;28;20022;-67
2021/03/16 11:33:59;;;;;;;40.53;23.25;;;8.80;91.80;;;;;;4998156;28;20029;-72
2021/03/16 11:36:25;;;;;;;15.00;10.40;;;8.70;91.20;;;;;;4998636;28;20026;-73
2021/03/16 11:38:51;;;;;;;15.93;10.90;;;8.60;91.70;;;;;;4999064;28;20022;-73
2021/03/16 11:41:17;;;;;;;10.32;8.10;;;8.60;91.80;;;;;;4995143;28;20031;-64
2021/03/16 11:43:43;;;;;;;9.15;7.55;;;8.70;91.40;;;;;;4996642;28;20029;-66
2021/03/16 11:46:09;;;;;;;15.98;10.98;;;8.70;90.90;;;;;;4996903;28;20023;-67
2021/03/16 11:48:35;;;;;;;40.55;23.98;;;8.60;91.00;;;;;;4996221;28;20053;-66
2021/03/16 11:51:01;;;;;;;165.23;90.72;;;8.60;91.50;;;;;;4995317;28;20054;-73
2021/03/16 11:53:26;;;;;;;118.30;58.53;;;8.60;91.30;;;;;;4997120;28;20117;-69
2021/03/16 11:55:52;;;;;;;121.97;64.78;;;8.70;92.50;;;;;;4995623;28;20116;-67
2021/03/16 11:58:18;;;;;;;19.00;11.48;;;8.90;91.30;;;;;;4999268;28;20030;-71
2021/03/16 12:00:44;;;;;;;21.25;13.63;;;8.90;91.90;;;;;;4996525;28;20459;-73
2021/03/16 12:03:10;;;;;;;16.20;12.18;;;8.90;90.30;;;;;;4997587;28;20445;-73
2021/03/16 12:05:37;;;;;;;11.07;9.82;;;9.00;89.90;;;;;;4999531;28;20102;-68
2021/03/16 12:08:03;;;;;;;10.27;7.97;;;9.20;89.70;;;;;;4996394;28;20026;-68
2021/03/16 12:10:29;;;;;;;9.82;6.70;;;9.10;87.70;;;;;;4997245;28;20030;-73
2021/03/16 12:12:55;;;;;;;10.77;7.07;;;9.10;88.40;;;;;;4994057;28;20494;-69
2021/03/16 12:15:21;;;;;;;9.52;7.05;;;9.30;87.80;;;;;;4995077;28;20022;-68
2021/03/16 12:17:47;;;;;;;7.55;6.05;;;9.90;85.70;;;;;;5000257;28;20034;-68
2021/03/16 12:20:14;;;;;;;9.50;6.95;;;10.60;83.40;;;;;;5000889;28;20097;-66
2021/03/16 12:22:40;;;;;;;11.75;8.43;;;10.30;82.60;;;;;;4998983;28;20134;-72
2021/03/16 12:25:07;;;;;;;14.32;8.93;;;10.00;85.60;;;;;;4997916;28;20018;-65
2021/03/16 12:27:33;;;;;;;12.00;9.23;;;9.80;87.90;;;;;;4997596;28;20109;-71
2021/03/16 12:29:59;;;;;;;9.07;6.85;;;9.70;84.70;;;;;;4998311;28;20025;-67
2021/03/16 12:32:26;;;;;;;9.18;7.28;;;10.00;85.10;;;;;;4996488;28;20108;-67
2021/03/16 12:34:51;;;;;;;8.65;6.75;;;9.90;83.50;;;;;;4998183;28;20018;-67
2021/03/16 12:37:18;;;;;;;15.07;8.73;;;9.80;82.20;;;;;;4998508;28;20121;-65
2021/03/16 12:39:44;;;;;;;18.20;10.38;;;9.60;82.80;;;;;;4999803;28;20037;-65
2021/03/16 12:42:12;;;;;;;15.07;10.32;;;9.40;84.80;;;;;;4997899;28;20118;-75
2021/03/16 12:44:38;;;;;;;17.00;11.65;;;9.40;86.60;;;;;;4997467;28;20030;-70
2021/03/16 12:47:05;;;;;;;14.75;9.30;;;9.30;86.60;;;;;;4996559;28;20045;-71
2021/03/16 12:49:32;;;;;;;11.90;8.40;;;9.30;87.80;;;;;;4996553;28;20069;-71